sensor_id;sensor_type;location;lat;lon;timestamp;pressure;altitude;pressure_sealevel;temperature;humidity
79455;BME280;68900;52.134;5.420;2024-03-08T00:00:05;102088.94;;;3.36;94.13
79455;BME280;68900;52.134;5.420;2024-03-08T00:02:45;102088.16;;;3.34;93.46
79455;BME280;68900;52.134;5.420;2024-03-08T00:05:12;102084.72;;;3.32;93.63
79455;BME280;68900;52.134;5.420;2024-03-08T00:07:42;102086.56;;;3.30;93.57
79455;BME280;68900;52.134;5.420;2024-03-08T00:10:13;102083.91;;;3.30;93.37
79455;BME280;68900;52.134;5.420;2024-03-08T00:12:44;102079.66;;;3.26;94.00
79455;BME280;68900;52.134;5.420;2024-03-08T00:15:12;102088.47;;;3.28;93.86
79455;BME280;68900;52.134;5.420;2024-03-08T00:17:42;102084.13;;;3.26;93.43
79455;BME280;68900;52.134;5.420;2024-03-08T00:20:10;102076.19;;;3.24;93.64
79455;BME280;68900;52.134;5.420;2024-03-08T00:22:37;102075.41;;;3.22;93.61
79455;BME280;68900;52.134;5.420;2024-03-08T00:25:07;102079.06;;;3.20;93.50
79455;BME280;68900;52.134;5.420;2024-03-08T00:27:38;102077.38;;;3.19;93.29
79455;BME280;68900;52.134;5.420;2024-03-08T00:30:05;102076.63;;;3.15;93.50
79455;BME280;68900;52.134;5.420;2024-03-08T00:32:32;102080.47;;;3.09;93.53
79455;BME280;68900;52.134;5.420;2024-03-08T00:34:59;102078.44;;;3.15;93.36
79455;BME280;68900;52.134;5.420;2024-03-08T00:37:26;102075.75;;;3.15;92.82
79455;BME280;68900;52.134;5.420;2024-03-08T00:39:52;102073.25;;;3.11;93.21
79455;BME280;68900;52.134;5.420;2024-03-08T00:42:19;102066.28;;;3.09;93.53
79455;BME280;68900;52.134;5.420;2024-03-08T00:44:47;102068.31;;;3.04;92.92
79455;BME280;68900;52.134;5.420;2024-03-08T00:47:18;102072.94;;;3.00;92.92
79455;BME280;68900;52.134;5.420;2024-03-08T00:49:45;102073.75;;;3.01;93.03
79455;BME280;68900;52.134;5.420;2024-03-08T00:52:16;102061.53;;;2.97;93.76
79455;BME280;68900;52.134;5.420;2024-03-08T00:54:45;102066.06;;;2.95;93.17
79455;BME280;68900;52.134;5.420;2024-03-08T00:57:11;102060.88;;;2.92;93.62
79455;BME280;68900;52.134;5.420;2024-03-08T00:59:43;102051.06;;;2.92;93.76
79455;BME280;68900;52.134;5.420;2024-03-08T01:02:10;102047.84;;;2.86;93.46
79455;BME280;68900;52.134;5.420;2024-03-08T01:04:37;102048.72;;;2.86;93.52
79455;BME280;68900;52.134;5.420;2024-03-08T01:07:03;102038.28;;;2.82;93.75
79455;BME280;68900;52.134;5.420;2024-03-08T01:09:30;102029.66;;;2.77;94.05
79455;BME280;68900;52.134;5.420;2024-03-08T01:11:56;102026.22;;;2.73;93.80
79455;BME280;68900;52.134;5.420;2024-03-08T01:14:24;102028.06;;;2.73;93.48
79455;BME280;68900;52.134;5.420;2024-03-08T01:16:54;102021.00;;;2.72;93.33
79455;BME280;68900;52.134;5.420;2024-03-08T01:19:21;102018.34;;;2.72;93.87
79455;BME280;68900;52.134;5.420;2024-03-08T01:21:48;102018.41;;;2.70;93.55
79455;BME280;68900;52.134;5.420;2024-03-08T01:24:14;102016.66;;;2.69;93.77
79455;BME280;68900;52.134;5.420;2024-03-08T01:26:41;102008.81;;;2.66;93.36
79455;BME280;68900;52.134;5.420;2024-03-08T01:29:07;102012.50;;;2.63;93.70
79455;BME280;68900;52.134;5.420;2024-03-08T01:31:34;102008.13;;;2.62;93.19
79455;BME280;68900;52.134;5.420;2024-03-08T01:34:03;102007.25;;;2.62;94.15
79455;BME280;68900;52.134;5.420;2024-03-08T01:36:29;102002.13;;;2.57;93.94
79455;BME280;68900;52.134;5.420;2024-03-08T01:38:56;101997.75;;;2.56;93.64
79455;BME280;68900;52.134;5.420;2024-03-08T01:41:22;101989.03;;;2.53;93.90
79455;BME280;68900;52.134;5.420;2024-03-08T01:43:49;101990.78;;;2.54;93.30
79455;BME280;68900;52.134;5.420;2024-03-08T01:46:19;101988.16;;;2.52;93.75
79455;BME280;68900;52.134;5.420;2024-03-08T01:48:48;101989.16;;;2.50;93.09
79455;BME280;68900;52.134;5.420;2024-03-08T01:51:18;101981.38;;;2.45;93.36
79455;BME280;68900;52.134;5.420;2024-03-08T01:53:46;101981.47;;;2.44;93.70
79455;BME280;68900;52.134;5.420;2024-03-08T01:56:13;101984.84;;;2.47;93.74
79455;BME280;68900;52.134;5.420;2024-03-08T01:58:42;101971.69;;;2.44;93.03
79455;BME280;68900;52.134;5.420;2024-03-08T02:01:11;101981.53;;;2.42;93.24
79455;BME280;68900;52.134;5.420;2024-03-08T02:03:39;101974.63;;;2.38;93.58
79455;BME280;68900;52.134;5.420;2024-03-08T02:06:05;101975.56;;;2.37;93.49
79455;BME280;68900;52.134;5.420;2024-03-08T02:08:34;101978.94;;;2.41;93.05
79455;BME280;68900;52.134;5.420;2024-03-08T02:11:01;101971.75;;;2.43;92.82
79455;BME280;68900;52.134;5.420;2024-03-08T02:13:28;101970.34;;;2.36;93.21
79455;BME280;68900;52.134;5.420;2024-03-08T02:15:57;101967.00;;;2.31;92.99
79455;BME280;68900;52.134;5.420;2024-03-08T02:18:25;101964.03;;;2.37;93.35
79455;BME280;68900;52.134;5.420;2024-03-08T02:20:56;101959.69;;;2.36;92.68
79455;BME280;68900;52.134;5.420;2024-03-08T02:23:23;101965.00;;;2.36;92.86
79455;BME280;68900;52.134;5.420;2024-03-08T02:25:54;101959.31;;;2.25;92.98
79455;BME280;68900;52.134;5.420;2024-03-08T02:28:23;101959.47;;;2.21;92.60
79455;BME280;68900;52.134;5.420;2024-03-08T02:30:52;101950.66;;;2.19;93.68
79455;BME280;68900;52.134;5.420;2024-03-08T02:33:27;101946.00;;;2.25;92.95
79455;BME280;68900;52.134;5.420;2024-03-08T02:35:55;101949.72;;;2.20;92.92
79455;BME280;68900;52.134;5.420;2024-03-08T02:38:25;101956.25;;;2.13;92.83
79455;BME280;68900;52.134;5.420;2024-03-08T02:40:53;101942.94;;;2.13;92.75
79455;BME280;68900;52.134;5.420;2024-03-08T02:43:21;101938.50;;;2.14;92.74
79455;BME280;68900;52.134;5.420;2024-03-08T02:45:51;101934.03;;;2.14;93.01
79455;BME280;68900;52.134;5.420;2024-03-08T02:48:21;101932.41;;;2.12;93.01
79455;BME280;68900;52.134;5.420;2024-03-08T02:50:48;101919.16;;;2.10;92.72
79455;BME280;68900;52.134;5.420;2024-03-08T02:53:14;101921.81;;;2.10;92.54
79455;BME280;68900;52.134;5.420;2024-03-08T02:55:41;101914.75;;;2.09;92.50
79455;BME280;68900;52.134;5.420;2024-03-08T02:58:09;101915.91;;;2.04;92.98
79455;BME280;68900;52.134;5.420;2024-03-08T03:00:37;101912.63;;;1.99;92.85
79455;BME280;68900;52.134;5.420;2024-03-08T03:03:05;101915.28;;;1.99;92.45
79455;BME280;68900;52.134;5.420;2024-03-08T03:05:33;101912.47;;;2.02;93.20
79455;BME280;68900;52.134;5.420;2024-03-08T03:08:12;101910.50;;;2.05;92.42
79455;BME280;68900;52.134;5.420;2024-03-08T03:10:39;101900.94;;;2.01;92.42
79455;BME280;68900;52.134;5.420;2024-03-08T03:13:06;101904.53;;;2.00;92.21
79455;BME280;68900;52.134;5.420;2024-03-08T03:15:32;101901.88;;;2.00;92.15
79455;BME280;68900;52.134;5.420;2024-03-08T03:18:03;101901.09;;;1.98;92.96
79455;BME280;68900;52.134;5.420;2024-03-08T03:20:30;101899.38;;;1.97;92.42
79455;BME280;68900;52.134;5.420;2024-03-08T03:23:00;101894.25;;;1.93;92.37
79455;BME280;68900;52.134;5.420;2024-03-08T03:25:29;101893.41;;;1.92;92.29
79455;BME280;68900;52.134;5.420;2024-03-08T03:28:03;101891.53;;;1.94;92.69
79455;BME280;68900;52.134;5.420;2024-03-08T03:30:31;101881.63;;;1.98;92.34
79455;BME280;68900;52.134;5.420;2024-03-08T03:33:00;101877.06;;;2.00;92.53
79455;BME280;68900;52.134;5.420;2024-03-08T03:35:34;101874.56;;;1.97;91.88
79455;BME280;68900;52.134;5.420;2024-03-08T03:38:00;101879.81;;;1.98;92.45
79455;BME280;68900;52.134;5.420;2024-03-08T03:40:39;101876.50;;;1.93;91.89
79455;BME280;68900;52.134;5.420;2024-03-08T03:43:07;101886.34;;;1.91;92.45
79455;BME280;68900;52.134;5.420;2024-03-08T03:45:34;101877.59;;;1.89;92.36
79455;BME280;68900;52.134;5.420;2024-03-08T03:48:04;101882.03;;;1.89;91.60
79455;BME280;68900;52.134;5.420;2024-03-08T03:50:31;101876.94;;;1.84;91.52
79455;BME280;68900;52.134;5.420;2024-03-08T03:53:00;101876.84;;;1.86;91.94
79455;BME280;68900;52.134;5.420;2024-03-08T03:55:28;101867.28;;;1.82;91.72
79455;BME280;68900;52.134;5.420;2024-03-08T03:57:55;101871.00;;;1.77;92.34
79455;BME280;68900;52.134;5.420;2024-03-08T04:00:21;101878.22;;;1.75;92.17
79455;BME280;68900;52.134;5.420;2024-03-08T04:02:52;101873.88;;;1.73;91.95
79455;BME280;68900;52.134;5.420;2024-03-08T04:05:19;101875.75;;;1.71;92.32
79455;BME280;68900;52.134;5.420;2024-03-08T04:07:45;101871.38;;;1.70;91.33
79455;BME280;68900;52.134;5.420;2024-03-08T04:10:15;101878.34;;;1.72;92.21
79455;BME280;68900;52.134;5.420;2024-03-08T04:12:41;101865.84;;;1.74;91.73
79455;BME280;68900;52.134;5.420;2024-03-08T04:15:08;101869.28;;;1.76;91.68
79455;BME280;68900;52.134;5.420;2024-03-08T04:17:37;101861.44;;;1.73;91.20
79455;BME280;68900;52.134;5.420;2024-03-08T04:20:04;101855.31;;;1.71;91.89
79455;BME280;68900;52.134;5.420;2024-03-08T04:22:36;101852.75;;;1.70;91.72
79455;BME280;68900;52.134;5.420;2024-03-08T04:25:03;101851.94;;;1.68;91.14
79455;BME280;68900;52.134;5.420;2024-03-08T04:27:30;101850.31;;;1.65;91.13
79455;BME280;68900;52.134;5.420;2024-03-08T04:29:56;101843.25;;;1.64;91.58
79455;BME280;68900;52.134;5.420;2024-03-08T04:32:23;101846.06;;;1.61;91.29
79455;BME280;68900;52.134;5.420;2024-03-08T04:34:50;101848.56;;;1.64;91.31
79455;BME280;68900;52.134;5.420;2024-03-08T04:37:16;101842.53;;;1.61;91.16
79455;BME280;68900;52.134;5.420;2024-03-08T04:39:48;101842.66;;;1.58;91.29
79455;BME280;68900;52.134;5.420;2024-03-08T04:42:18;101846.34;;;1.55;91.42
79455;BME280;68900;52.134;5.420;2024-03-08T04:44:50;101835.63;;;1.57;90.91
79455;BME280;68900;52.134;5.420;2024-03-08T04:47:16;101841.72;;;1.59;90.94
79455;BME280;68900;52.134;5.420;2024-03-08T04:49:44;101837.28;;;1.59;91.60
79455;BME280;68900;52.134;5.420;2024-03-08T04:52:11;101840.88;;;1.58;91.49
79455;BME280;68900;52.134;5.420;2024-03-08T04:54:40;101840.09;;;1.56;91.53
79455;BME280;68900;52.134;5.420;2024-03-08T04:57:06;101827.72;;;1.55;91.23
79455;BME280;68900;52.134;5.420;2024-03-08T04:59:35;101832.19;;;1.55;90.84
79455;BME280;68900;52.134;5.420;2024-03-08T05:02:02;101829.56;;;1.53;91.02
79455;BME280;68900;52.134;5.420;2024-03-08T05:04:29;101835.91;;;1.51;91.06
79455;BME280;68900;52.134;5.420;2024-03-08T05:06:55;101824.41;;;1.50;91.40
79455;BME280;68900;52.134;5.420;2024-03-08T05:09:22;101832.44;;;1.49;90.72
79455;BME280;68900;52.134;5.420;2024-03-08T05:11:50;101831.56;;;1.48;91.25
79455;BME280;68900;52.134;5.420;2024-03-08T05:14:16;101827.22;;;1.47;91.41
79455;BME280;68900;52.134;5.420;2024-03-08T05:16:44;101829.00;;;1.47;91.45
79455;BME280;68900;52.134;5.420;2024-03-08T05:19:18;101837.03;;;1.45;90.90
79455;BME280;68900;52.134;5.420;2024-03-08T05:21:46;101830.00;;;1.44;90.82
79455;BME280;68900;52.134;5.420;2024-03-08T05:24:14;101826.56;;;1.42;91.17
79455;BME280;68900;52.134;5.420;2024-03-08T05:26:45;101817.72;;;1.42;91.62
79455;BME280;68900;52.134;5.420;2024-03-08T05:29:12;101816.69;;;1.44;91.08
79455;BME280;68900;52.134;5.420;2024-03-08T05:31:46;101823.91;;;1.42;91.35
79455;BME280;68900;52.134;5.420;2024-03-08T05:34:14;101818.78;;;1.38;90.77
79455;BME280;68900;52.134;5.420;2024-03-08T05:36:41;101822.38;;;1.37;90.87
79455;BME280;68900;52.134;5.420;2024-03-08T05:39:13;101817.06;;;1.37;91.60
79455;BME280;68900;52.134;5.420;2024-03-08T05:41:40;101823.44;;;1.32;91.51
79455;BME280;68900;52.134;5.420;2024-03-08T05:44:07;101815.69;;;1.28;90.72
79455;BME280;68900;52.134;5.420;2024-03-08T05:46:34;101816.44;;;1.30;90.84
79455;BME280;68900;52.134;5.420;2024-03-08T05:49:07;101809.44;;;1.29;90.89
79455;BME280;68900;52.134;5.420;2024-03-08T05:51:37;101815.53;;;1.31;91.75
79455;BME280;68900;52.134;5.420;2024-03-08T05:54:07;101811.13;;;1.30;91.24
79455;BME280;68900;52.134;5.420;2024-03-08T05:56:37;101813.03;;;1.28;91.59
79455;BME280;68900;52.134;5.420;2024-03-08T05:59:04;101804.19;;;1.27;91.35
79455;BME280;68900;52.134;5.420;2024-03-08T06:01:30;101803.31;;;1.27;90.87
79455;BME280;68900;52.134;5.420;2024-03-08T06:03:57;101798.06;;;1.25;91.19
79455;BME280;68900;52.134;5.420;2024-03-08T06:06:24;101783.91;;;1.25;90.65
79455;BME280;68900;52.134;5.420;2024-03-08T06:08:54;101789.38;;;1.22;91.54
79455;BME280;68900;52.134;5.420;2024-03-08T06:11:23;101791.09;;;1.23;91.40
79455;BME280;68900;52.134;5.420;2024-03-08T06:13:49;101790.22;;;1.22;91.08
79455;BME280;68900;52.134;5.420;2024-03-08T06:16:19;101796.41;;;1.23;91.12
79455;BME280;68900;52.134;5.420;2024-03-08T06:18:45;101785.78;;;1.23;91.05
79455;BME280;68900;52.134;5.420;2024-03-08T06:21:13;101792.03;;;1.22;91.51
79455;BME280;68900;52.134;5.420;2024-03-08T06:23:39;101784.97;;;1.21;91.21
79455;BME280;68900;52.134;5.420;2024-03-08T06:26:09;101782.25;;;1.22;91.18
79455;BME280;68900;52.134;5.420;2024-03-08T06:28:36;101791.09;;;1.23;90.71
79455;BME280;68900;52.134;5.420;2024-03-08T06:31:03;101790.19;;;1.24;90.91
79455;BME280;68900;52.134;5.420;2024-03-08T06:33:30;101791.09;;;1.23;90.95
79455;BME280;68900;52.134;5.420;2024-03-08T06:36:01;101783.06;;;1.24;91.37
79455;BME280;68900;52.134;5.420;2024-03-08T06:38:27;101789.22;;;1.25;91.11
79455;BME280;68900;52.134;5.420;2024-03-08T06:40:54;101779.53;;;1.24;90.41
79455;BME280;68900;52.134;5.420;2024-03-08T06:43:21;101784.72;;;1.27;91.17
79455;BME280;68900;52.134;5.420;2024-03-08T06:45:47;101779.41;;;1.27;90.73
79455;BME280;68900;52.134;5.420;2024-03-08T06:48:19;101783.78;;;1.28;90.12
79455;BME280;68900;52.134;5.420;2024-03-08T06:50:46;101783.72;;;1.29;91.01
79455;BME280;68900;52.134;5.420;2024-03-08T06:53:14;101778.41;;;1.29;90.95
79455;BME280;68900;52.134;5.420;2024-03-08T06:55:42;101779.25;;;1.30;90.77
79455;BME280;68900;52.134;5.420;2024-03-08T06:58:10;101779.25;;;1.30;90.88
79455;BME280;68900;52.134;5.420;2024-03-08T07:00:37;101777.41;;;1.32;90.49
79455;BME280;68900;52.134;5.420;2024-03-08T07:03:08;101772.94;;;1.32;90.45
79455;BME280;68900;52.134;5.420;2024-03-08T07:05:38;101777.34;;;1.33;90.48
79455;BME280;68900;52.134;5.420;2024-03-08T07:08:09;101770.94;;;1.38;90.15
79455;BME280;68900;52.134;5.420;2024-03-08T07:10:35;101770.78;;;1.41;90.62
79455;BME280;68900;52.134;5.420;2024-03-08T07:13:03;101772.47;;;1.43;90.95
79455;BME280;68900;52.134;5.420;2024-03-08T07:15:32;101775.69;;;1.50;90.66
79455;BME280;68900;52.134;5.420;2024-03-08T07:17:59;101770.16;;;1.54;90.23
79455;BME280;68900;52.134;5.420;2024-03-08T07:20:29;101769.22;;;1.55;90.33
79455;BME280;68900;52.134;5.420;2024-03-08T07:22:55;101774.50;;;1.57;89.68
79455;BME280;68900;52.134;5.420;2024-03-08T07:25:22;101769.88;;;1.60;89.60
79455;BME280;68900;52.134;5.420;2024-03-08T07:27:51;101764.41;;;1.63;89.56
79455;BME280;68900;52.134;5.420;2024-03-08T07:30:18;101758.97;;;1.66;89.49
79455;BME280;68900;52.134;5.420;2024-03-08T07:33:05;101755.28;;;1.69;90.02
79455;BME280;68900;52.134;5.420;2024-03-08T07:35:33;101757.72;;;1.73;89.44
79455;BME280;68900;52.134;5.420;2024-03-08T07:38:04;101747.91;;;1.75;88.88
79455;BME280;68900;52.134;5.420;2024-03-08T07:40:38;101748.59;;;1.79;89.43
79455;BME280;68900;52.134;5.420;2024-03-08T07:43:10;101747.53;;;1.83;88.78
79455;BME280;68900;52.134;5.420;2024-03-08T07:45:37;101739.31;;;1.88;88.93
79455;BME280;68900;52.134;5.420;2024-03-08T07:48:05;101737.38;;;1.91;88.75
79455;BME280;68900;52.134;5.420;2024-03-08T07:50:37;101742.47;;;1.96;88.50
79455;BME280;68900;52.134;5.420;2024-03-08T07:53:06;101731.69;;;1.99;88.83
79455;BME280;68900;52.134;5.420;2024-03-08T07:55:34;101740.28;;;2.04;88.02
79455;BME280;68900;52.134;5.420;2024-03-08T07:58:03;101738.25;;;2.09;88.13
79455;BME280;68900;52.134;5.420;2024-03-08T08:00:34;101730.91;;;2.14;87.94
79455;BME280;68900;52.134;5.420;2024-03-08T08:03:27;101723.56;;;2.19;87.39
79455;BME280;68900;52.134;5.420;2024-03-08T08:05:54;101718.94;;;2.22;87.98
79455;BME280;68900;52.134;5.420;2024-03-08T08:08:20;101718.66;;;2.29;88.37
79455;BME280;68900;52.134;5.420;2024-03-08T08:10:47;101710.38;;;2.35;88.07
79455;BME280;68900;52.134;5.420;2024-03-08T08:13:19;101714.59;;;2.39;86.77
79455;BME280;68900;52.134;5.420;2024-03-08T08:15:46;101704.66;;;2.42;86.87
79455;BME280;68900;52.134;5.420;2024-03-08T08:18:12;101703.53;;;2.46;87.11
79455;BME280;68900;52.134;5.420;2024-03-08T08:20:40;101706.84;;;2.51;86.81
79455;BME280;68900;52.134;5.420;2024-03-08T08:23:06;101702.94;;;2.58;86.79
79455;BME280;68900;52.134;5.420;2024-03-08T08:25:33;101701.66;;;2.65;86.68
79455;BME280;68900;52.134;5.420;2024-03-08T08:28:01;101701.41;;;2.70;86.61
79455;BME280;68900;52.134;5.420;2024-03-08T08:30:31;101704.72;;;2.75;86.43
79455;BME280;68900;52.134;5.420;2024-03-08T08:32:59;101696.47;;;2.80;85.61
79455;BME280;68900;52.134;5.420;2024-03-08T08:35:31;101689.28;;;2.82;86.15
79455;BME280;68900;52.134;5.420;2024-03-08T08:37:58;101694.25;;;2.88;86.03
79455;BME280;68900;52.134;5.420;2024-03-08T08:40:25;101694.00;;;2.92;85.03
79455;BME280;68900;52.134;5.420;2024-03-08T08:42:56;101687.50;;;2.98;84.99
79455;BME280;68900;52.134;5.420;2024-03-08T08:45:24;101679.94;;;3.06;84.84
79455;BME280;68900;52.134;5.420;2024-03-08T08:47:52;101677.91;;;3.11;84.67
79455;BME280;68900;52.134;5.420;2024-03-08T08:50:21;101673.25;;;3.15;85.04
79455;BME280;68900;52.134;5.420;2024-03-08T08:52:52;101664.16;;;3.19;84.46
79455;BME280;68900;52.134;5.420;2024-03-08T08:55:20;101667.34;;;3.25;84.56
79455;BME280;68900;52.134;5.420;2024-03-08T08:57:54;101677.75;;;3.30;84.23
79455;BME280;68900;52.134;5.420;2024-03-08T09:00:22;101666.84;;;3.34;83.38
79455;BME280;68900;52.134;5.420;2024-03-08T09:02:53;101667.53;;;3.38;84.01
79455;BME280;68900;52.134;5.420;2024-03-08T09:05:22;101661.78;;;3.45;84.11
79455;BME280;68900;52.134;5.420;2024-03-08T09:07:50;101658.66;;;3.53;82.90
79455;BME280;68900;52.134;5.420;2024-03-08T09:10:17;101651.34;;;3.56;83.07
79455;BME280;68900;52.134;5.420;2024-03-08T09:12:45;101655.66;;;3.59;82.92
79455;BME280;68900;52.134;5.420;2024-03-08T09:15:11;101645.50;;;3.66;83.41
79455;BME280;68900;52.134;5.420;2024-03-08T09:17:39;101650.66;;;3.69;82.67
79455;BME280;68900;52.134;5.420;2024-03-08T09:20:12;101645.81;;;3.75;82.56
79455;BME280;68900;52.134;5.420;2024-03-08T09:22:45;101639.47;;;3.78;82.82
79455;BME280;68900;52.134;5.420;2024-03-08T09:25:12;101635.59;;;3.83;83.09
79455;BME280;68900;52.134;5.420;2024-03-08T09:27:42;101634.34;;;3.89;82.56
79455;BME280;68900;52.134;5.420;2024-03-08T09:30:09;101624.78;;;4.00;82.95
79455;BME280;68900;52.134;5.420;2024-03-08T09:32:39;101626.06;;;4.09;82.46
79455;BME280;68900;52.134;5.420;2024-03-08T09:35:06;101625.00;;;4.12;81.60
79455;BME280;68900;52.134;5.420;2024-03-08T09:37:35;101608.81;;;4.15;81.67
79455;BME280;68900;52.134;5.420;2024-03-08T09:40:05;101604.53;;;4.26;81.75
79455;BME280;68900;52.134;5.420;2024-03-08T09:42:36;101604.75;;;4.37;81.05
79455;BME280;68900;52.134;5.420;2024-03-08T09:45:11;101603.53;;;4.43;80.97
79455;BME280;68900;52.134;5.420;2024-03-08T09:47:40;101595.25;;;4.48;81.62
79455;BME280;68900;52.134;5.420;2024-03-08T09:50:10;101595.81;;;4.53;80.50
79455;BME280;68900;52.134;5.420;2024-03-08T09:52:39;101581.97;;;4.60;79.43
79455;BME280;68900;52.134;5.420;2024-03-08T09:55:09;101572.16;;;4.61;80.12
79455;BME280;68900;52.134;5.420;2024-03-08T09:57:40;101583.13;;;4.70;79.61
79455;BME280;68900;52.134;5.420;2024-03-08T10:00:06;101574.41;;;4.81;79.19
79455;BME280;68900;52.134;5.420;2024-03-08T10:02:50;101570.63;;;4.85;78.97
79455;BME280;68900;52.134;5.420;2024-03-08T10:05:21;101567.66;;;4.89;79.49
79455;BME280;68900;52.134;5.420;2024-03-08T10:07:49;101562.19;;;4.91;79.76
79455;BME280;68900;52.134;5.420;2024-03-08T10:10:16;101559.50;;;5.05;79.91
79455;BME280;68900;52.134;5.420;2024-03-08T10:12:42;101548.13;;;5.16;78.34
79455;BME280;68900;52.134;5.420;2024-03-08T10:15:10;101549.03;;;5.29;78.88
79455;BME280;68900;52.134;5.420;2024-03-08T10:17:38;101548.34;;;5.40;77.48
79455;BME280;68900;52.134;5.420;2024-03-08T10:20:14;101537.63;;;5.40;78.08
79455;BME280;68900;52.134;5.420;2024-03-08T10:22:42;101537.75;;;5.51;77.67
79455;BME280;68900;52.134;5.420;2024-03-08T10:25:31;101523.56;;;5.50;77.44
79455;BME280;68900;52.134;5.420;2024-03-08T10:27:58;101525.41;;;5.62;77.75
79455;BME280;68900;52.134;5.420;2024-03-08T10:30:24;101514.59;;;5.64;76.98
79455;BME280;68900;52.134;5.420;2024-03-08T10:32:51;101514.28;;;5.68;77.18
79455;BME280;68900;52.134;5.420;2024-03-08T10:35:18;101516.34;;;5.77;76.55
79455;BME280;68900;52.134;5.420;2024-03-08T10:37:48;101503.78;;;5.78;77.56
79455;BME280;68900;52.134;5.420;2024-03-08T10:40:17;101498.28;;;5.94;76.82
79455;BME280;68900;52.134;5.420;2024-03-08T10:45:34;101492.94;;;6.06;75.70
79455;BME280;68900;52.134;5.420;2024-03-08T10:48:17;101481.38;;;6.06;75.89
79455;BME280;68900;52.134;5.420;2024-03-08T10:50:46;101486.63;;;6.07;75.65
79455;BME280;68900;52.134;5.420;2024-03-08T10:53:18;101485.78;;;6.19;74.62
79455;BME280;68900;52.134;5.420;2024-03-08T10:55:49;101478.78;;;6.30;75.01
79455;BME280;68900;52.134;5.420;2024-03-08T10:58:17;101476.88;;;6.32;74.82
79455;BME280;68900;52.134;5.420;2024-03-08T11:00:43;101467.66;;;6.36;74.81
79455;BME280;68900;52.134;5.420;2024-03-08T11:06:23;101447.19;;;6.47;74.47
79455;BME280;68900;52.134;5.420;2024-03-08T11:08:57;101453.56;;;6.57;73.27
79455;BME280;68900;52.134;5.420;2024-03-08T11:11:29;101437.03;;;6.63;72.72
79455;BME280;68900;52.134;5.420;2024-03-08T11:14:02;101430.38;;;6.69;73.02
79455;BME280;68900;52.134;5.420;2024-03-08T11:19:06;101424.72;;;6.85;71.91
79455;BME280;68900;52.134;5.420;2024-03-08T11:21:37;101413.66;;;6.89;72.23
79455;BME280;68900;52.134;5.420;2024-03-08T11:24:10;101411.75;;;6.91;72.15
79455;BME280;68900;52.134;5.420;2024-03-08T11:26:38;101412.50;;;6.93;71.88
79455;BME280;68900;52.134;5.420;2024-03-08T11:32:08;101387.19;;;7.08;72.24
79455;BME280;68900;52.134;5.420;2024-03-08T11:34:40;101384.81;;;7.17;71.33
79455;BME280;68900;52.134;5.420;2024-03-08T11:37:13;101369.31;;;7.20;71.58
79455;BME280;68900;52.134;5.420;2024-03-08T11:39:48;101371.06;;;7.32;71.43
79455;BME280;68900;52.134;5.420;2024-03-08T11:42:15;101372.47;;;7.49;69.82
79455;BME280;68900;52.134;5.420;2024-03-08T11:44:44;101362.44;;;7.51;70.05
79455;BME280;68900;52.134;5.420;2024-03-08T11:47:11;101362.69;;;7.59;70.41
79455;BME280;68900;52.134;5.420;2024-03-08T11:49:38;101361.84;;;7.59;69.96
79455;BME280;68900;52.134;5.420;2024-03-08T11:52:05;101359.19;;;7.70;68.54
79455;BME280;68900;52.134;5.420;2024-03-08T11:54:33;101342.97;;;7.71;69.07
79455;BME280;68900;52.134;5.420;2024-03-08T11:57:01;101335.88;;;7.70;68.82
79455;BME280;68900;52.134;5.420;2024-03-08T11:59:33;101332.47;;;7.90;67.22
79455;BME280;68900;52.134;5.420;2024-03-08T12:02:06;101329.50;;;8.05;65.41
79455;BME280;68900;52.134;5.420;2024-03-08T12:04:36;101330.38;;;8.05;64.49
79455;BME280;68900;52.134;5.420;2024-03-08T12:07:09;101322.78;;;8.10;65.72
79455;BME280;68900;52.134;5.420;2024-03-08T12:09:36;101316.94;;;8.16;63.83
79455;BME280;68900;52.134;5.420;2024-03-08T12:12:06;101323.38;;;8.25;65.69
79455;BME280;68900;52.134;5.420;2024-03-08T12:14:43;101310.97;;;8.13;65.81
79455;BME280;68900;52.134;5.420;2024-03-08T12:17:16;101296.19;;;8.18;66.09
79455;BME280;68900;52.134;5.420;2024-03-08T12:19:46;101305.84;;;8.32;64.70
79455;BME280;68900;52.134;5.420;2024-03-08T12:22:44;101302.41;;;8.30;64.15
79455;BME280;68900;52.134;5.420;2024-03-08T12:25:12;101312.28;;;8.29;64.45
79455;BME280;68900;52.134;5.420;2024-03-08T12:27:43;101304.81;;;8.33;64.09
79455;BME280;68900;52.134;5.420;2024-03-08T12:30:24;101288.69;;;8.33;63.98
79455;BME280;68900;52.134;5.420;2024-03-08T12:32:57;101287.34;;;8.38;64.23
79455;BME280;68900;52.134;5.420;2024-03-08T12:35:30;101276.22;;;8.43;63.72
79455;BME280;68900;52.134;5.420;2024-03-08T12:37:58;101264.09;;;8.49;62.81
79455;BME280;68900;52.134;5.420;2024-03-08T12:40:30;101269.09;;;8.53;62.84
79455;BME280;68900;52.134;5.420;2024-03-08T12:43:01;101259.06;;;8.55;62.02
79455;BME280;68900;52.134;5.420;2024-03-08T12:45:35;101264.06;;;8.60;62.18
79455;BME280;68900;52.134;5.420;2024-03-08T12:48:01;101262.94;;;8.62;63.75
79455;BME280;68900;52.134;5.420;2024-03-08T12:50:29;101262.69;;;8.65;62.46
79455;BME280;68900;52.134;5.420;2024-03-08T12:52:56;101251.53;;;8.70;62.55
79455;BME280;68900;52.134;5.420;2024-03-08T12:55:23;101256.06;;;8.69;62.20
79455;BME280;68900;52.134;5.420;2024-03-08T12:57:50;101250.25;;;8.64;62.36
79455;BME280;68900;52.134;5.420;2024-03-08T13:00:16;101252.78;;;8.66;63.25
79455;BME280;68900;52.134;5.420;2024-03-08T13:02:46;101241.00;;;8.78;62.36
79455;BME280;68900;52.134;5.420;2024-03-08T13:05:13;101234.78;;;8.77;61.82
79455;BME280;68900;52.134;5.420;2024-03-08T13:07:43;101232.47;;;8.73;61.99
79455;BME280;68900;52.134;5.420;2024-03-08T13:10:18;101237.50;;;8.66;62.17
79455;BME280;68900;52.134;5.420;2024-03-08T13:12:46;101231.72;;;8.71;62.21
79455;BME280;68900;52.134;5.420;2024-03-08T13:15:15;101225.44;;;8.81;61.58
79455;BME280;68900;52.134;5.420;2024-03-08T13:17:47;101226.88;;;8.85;61.27
79455;BME280;68900;52.134;5.420;2024-03-08T13:20:15;101227.00;;;8.84;61.30